Time;durP1;ratioP1;P1;durP2;ratioP2;P2;SDS_P1;SDS_P2;PMS_P1;PMS_P2;Temp;Humidity;BMP_temperature;BMP_pressure;BME280_temperature;BME280_humidity;BME280_pressure;Samples;Min_cycle;Max_cycle;Signal;HPM_P1;HPM_P2
2023/03/12 00:01:13;;;;;;;;;;;0.00;99.90;;;;;;4970029;28;20369;-71
2023/03/12 00:03:39;;;;;;;;;;;0.00;99.90;;;;;;4983684;28;20390;-71
2023/03/12 00:06:05;;;;;;;;;;;0.10;99.90;;;;;;4969567;28;19925;-71
2023/03/12 00:08:30;;;;;;;;;;;0.00;99.90;;;;;;4966831;28;19930;-71
2023/03/12 00:10:59;;;;;;;;;;;0.00;99.90;;;;;;4969383;28;20282;-71
2023/03/12 00:13:24;;;;;;;;;;;0.00;99.90;;;;;;4984400;28;19932;-72
2023/03/12 00:15:50;;;;;;;;;;;0.00;99.90;;;;;;4968581;28;19930;-71
2023/03/12 00:18:15;;;;;;;;;;;1.30;99.90;;;;;;4983336;28;19930;-71
2023/03/12 00:20:41;;;;;;;;;;;2.10;99.90;;;;;;4985577;28;19932;-71
2023/03/12 00:23:06;;;;;;;;;;;0.00;99.90;;;;;;4967350;28;19934;-71
2023/03/12 00:25:32;;;;;;;;;;;1.40;99.90;;;;;;4966164;28;19981;-71
2023/03/12 00:27:57;;;;;;;;;;;1.30;99.90;;;;;;4986971;28;19930;-71
2023/03/12 00:30:23;;;;;;;;;;;-0.10;99.90;;;;;;4984591;28;19981;-71
2023/03/12 00:32:48;;;;;;;;;;;0.00;99.90;;;;;;4968082;28;20013;-71
2023/03/12 00:35:14;;;;;;;;;;;0.00;99.90;;;;;;4967586;28;20372;-71
2023/03/12 00:37:39;;;;;;;;;;;-0.20;99.90;;;;;;4967247;28;20017;-71
2023/03/12 00:40:07;;;;;;;;;;;0.10;99.90;;;;;;4968925;28;19932;-72
2023/03/12 00:42:33;;;;;;;;;;;0.10;99.90;;;;;;4983811;28;19933;-71
2023/03/12 00:44:58;;;;;;;;;;;2.20;99.90;;;;;;4984287;28;19926;-71
2023/03/12 00:47:24;;;;;;;;;;;0.10;99.90;;;;;;4968570;28;19969;-71
2023/03/12 00:49:49;;;;;;;;;;;0.10;99.90;;;;;;4966319;28;19926;-71
2023/03/12 00:52:15;;;;;;;;;;;0.00;99.90;;;;;;4968733;28;20298;-71
2023/03/12 00:54:40;;;;;;;;;;;0.10;99.90;;;;;;4966664;28;20396;-71
2023/03/12 00:57:06;;;;;;;;;;;0.10;99.90;;;;;;4983842;28;19937;-71
2023/03/12 00:59:31;;;;;;;;;;;1.50;99.90;;;;;;5001124;28;19941;-71
2023/03/12 01:01:57;;;;;;;;;;;0.10;99.90;;;;;;4983246;28;19922;-70
2023/03/12 01:04:22;;;;;;;;;;;0.00;99.90;;;;;;4968515;28;20369;-71
2023/03/12 01:06:48;;;;;;;;;;;0.00;99.90;;;;;;4983134;28;19973;-71
2023/03/12 01:09:13;;;;;;;;;;;0.00;99.90;;;;;;4968042;28;19973;-71
2023/03/12 01:11:39;;;;;;;;;;;0.00;99.90;;;;;;4965341;28;19930;-71
2023/03/12 01:14:06;;;;;;;;;;;2.50;99.90;;;;;;4968114;28;19926;-71
2023/03/12 01:16:34;;;;;;;;;;;0.00;99.90;;;;;;4982879;28;19926;-70
2023/03/12 01:19:01;;;;;;;;;;;0.10;99.90;;;;;;4985912;28;20008;-71
2023/03/12 01:21:27;;;;;;;;;;;0.20;99.90;;;;;;4965940;28;19926;-71
2023/03/12 01:23:52;;;;;;;;;;;0.30;99.90;;;;;;4968523;28;19926;-71
2023/03/12 01:26:18;;;;;;;;;;;0.30;99.90;;;;;;4983309;28;19989;-71
2023/03/12 01:28:44;;;;;;;;;;;2.10;99.90;;;;;;4965833;28;19965;-71
2023/03/12 01:31:11;;;;;;;;;;;0.90;99.90;;;;;;4981541;28;19941;-71
2023/03/12 01:33:36;;;;;;;;;;;0.50;99.90;;;;;;4961368;28;19926;-72
2023/03/12 01:36:02;;;;;;;;;;;0.50;99.90;;;;;;4966905;28;19984;-71
2023/03/12 01:38:27;;;;;;;;;;;0.50;99.90;;;;;;4966161;28;19926;-71
2023/03/12 01:40:53;;;;;;;;;;;0.40;99.90;;;;;;4968724;28;19929;-71
2023/03/12 01:43:23;;;;;;;;;;;0.50;99.90;;;;;;4982292;28;20057;-71
2023/03/12 01:46:01;;;;;;;;;;;0.60;99.90;;;;;;4981986;28;19925;-71
2023/03/12 01:48:32;;;;;;;;;;;0.60;99.90;;;;;;4980670;28;19933;-71
2023/03/12 01:50:58;;;;;;;;;;;0.60;99.90;;;;;;4966653;28;19932;-71
2023/03/12 01:53:24;;;;;;;;;;;0.60;99.90;;;;;;4965623;28;19926;-71
2023/03/12 01:55:49;;;;;;;;;;;3.10;99.90;;;;;;4984555;28;19926;-71
2023/03/12 01:58:15;;;;;;;;;;;2.20;99.90;;;;;;4985421;28;19930;-71
2023/03/12 02:00:41;;;;;;;;;;;0.60;99.90;;;;;;4982577;28;19930;-71
2023/03/12 02:03:07;;;;;;;;;;;0.80;99.90;;;;;;4967962;28;19949;-71
2023/03/12 02:05:42;;;;;;;;;;;0.80;99.90;;;;;;4963731;28;20028;-71
2023/03/12 02:08:12;;;;;;;;;;;0.90;99.90;;;;;;4983203;28;19941;-70
2023/03/12 02:10:37;;;;;;;;;;;1.00;99.90;;;;;;4967246;28;19934;-71
2023/03/12 02:13:03;;;;;;;;;;;1.00;99.90;;;;;;4965515;28;19929;-71
2023/03/12 02:15:29;;;;;;;;;;;1.00;99.90;;;;;;4965670;28;20026;-71
2023/03/12 02:17:54;;;;;;;;;;;1.10;99.90;;;;;;4983686;28;19926;-71
2023/03/12 02:20:38;;;;;;;;;;;1.00;99.90;;;;;;4982021;28;20382;-72
2023/03/12 02:23:16;;;;;;;;;;;1.00;99.90;;;;;;4965822;28;20080;-71
2023/03/12 02:25:45;;;;;;;;;;;0.90;99.90;;;;;;4977237;28;19929;-71
2023/03/12 02:28:14;;;;;;;;;;;1.10;99.90;;;;;;4960946;28;19930;-71
2023/03/12 02:30:43;;;;;;;;;;;1.00;99.90;;;;;;4977823;28;19926;-71
2023/03/12 02:33:09;;;;;;;;;;;1.10;99.90;;;;;;4960123;28;20138;-71
2023/03/12 02:35:34;;;;;;;;;;;1.10;99.90;;;;;;4966700;28;19930;-72
2023/03/12 02:38:00;;;;;;;;;;;1.10;99.90;;;;;;4965695;28;19937;-72
2023/03/12 02:40:39;;;;;;;;;;;1.10;99.90;;;;;;4982909;28;20469;-72
2023/03/12 02:43:06;;;;;;;;;;;1.30;99.90;;;;;;4965475;28;19948;-72
2023/03/12 02:45:32;;;;;;;;;;;1.30;99.90;;;;;;4981629;28;19934;-72
2023/03/12 02:47:58;;;;;;;;;;;1.40;99.90;;;;;;4965874;28;19933;-71
2023/03/12 02:50:23;;;;;;;;;;;1.40;99.90;;;;;;4983003;28;19926;-71
2023/03/12 02:52:49;;;;;;;;;;;1.30;99.90;;;;;;4965276;28;19926;-71
2023/03/12 02:55:15;;;;;;;;;;;1.30;99.90;;;;;;4966239;28;19933;-71
2023/03/12 02:57:42;;;;;;;;;;;3.10;99.90;;;;;;4963870;28;19977;-71
2023/03/12 03:00:13;;;;;;;;;;;1.40;99.90;;;;;;4984229;28;20348;-72
2023/03/12 03:02:39;;;;;;;;;;;1.30;99.90;;;;;;4960240;28;20266;-71
2023/03/12 03:05:05;;;;;;;;;;;1.20;99.90;;;;;;4965675;28;19933;-72
2023/03/12 03:07:30;;;;;;;;;;;1.20;99.90;;;;;;4983352;28;19930;-72
2023/03/12 03:09:56;;;;;;;;;;;1.30;99.90;;;;;;4964970;28;20344;-72
2023/03/12 03:12:21;;;;;;;;;;;1.30;99.90;;;;;;4982706;28;20386;-72
2023/03/12 03:14:47;;;;;;;;;;;2.70;99.90;;;;;;4982592;28;19980;-71
2023/03/12 03:17:13;;;;;;;;;;;1.50;99.90;;;;;;4964899;28;20021;-72
2023/03/12 03:19:38;;;;;;;;;;;1.40;99.90;;;;;;4984052;28;19929;-71
2023/03/12 03:22:04;;;;;;;;;;;1.50;99.90;;;;;;4980775;28;19926;-71
2023/03/12 03:24:30;;;;;;;;;;;1.40;99.90;;;;;;4976715;28;19981;-71
2023/03/12 03:26:55;;;;;;;;;;;1.40;99.90;;;;;;4984093;28;19933;-71
2023/03/12 03:29:21;;;;;;;;;;;4.50;99.90;;;;;;4965853;28;19932;-71
2023/03/12 03:31:49;;;;;;;;;;;3.00;99.90;;;;;;4969780;28;19926;-71
2023/03/12 03:34:15;;;;;;;;;;;1.60;99.90;;;;;;5002172;28;20393;-71
2023/03/12 03:36:40;;;;;;;;;;;1.60;99.90;;;;;;4967940;28;19930;-71
2023/03/12 03:39:06;;;;;;;;;;;1.50;99.90;;;;;;4987885;28;20025;-71
2023/03/12 03:41:31;;;;;;;;;;;1.50;99.90;;;;;;4984989;28;20366;-71
2023/03/12 03:43:58;;;;;;;;;;;1.60;99.90;;;;;;4970338;28;20394;-71
2023/03/12 03:46:24;;;;;;;;;;;1.60;99.90;;;;;;4967305;28;20381;-71
2023/03/12 03:48:49;;;;;;;;;;;2.80;99.90;;;;;;4969733;28;19933;-71
2023/03/12 03:51:15;;;;;;;;;;;1.60;99.90;;;;;;4986405;28;19934;-71
2023/03/12 03:53:41;;;;;;;;;;;3.30;99.90;;;;;;4986533;28;19930;-71
2023/03/12 03:56:07;;;;;;;;;;;1.80;99.90;;;;;;4968110;28;19926;-71
2023/03/12 03:58:33;;;;;;;;;;;1.70;99.90;;;;;;4968722;28;20069;-71
2023/03/12 04:00:59;;;;;;;;;;;1.70;99.90;;;;;;4967553;28;20016;-71
2023/03/12 04:03:24;;;;;;;;;;;3.10;99.90;;;;;;4987095;28;20435;-71
2023/03/12 04:06:08;;;;;;;;;;;1.80;99.90;;;;;;4985459;28;19930;-71
2023/03/12 04:08:35;;;;;;;;;;;1.80;99.90;;;;;;4982441;28;20290;-71
2023/03/12 04:11:08;;;;;;;;;;;3.50;99.90;;;;;;4985095;28;20025;-71
2023/03/12 04:13:34;;;;;;;;;;;1.80;99.90;;;;;;4968917;28;19922;-71
2023/03/12 04:15:59;;;;;;;;;;;2.90;99.90;;;;;;4985165;28;19933;-71
2023/03/12 04:18:25;;;;;;;;;;;1.70;99.90;;;;;;4986857;28;20348;-71
2023/03/12 04:20:50;;;;;;;;;;;1.60;99.90;;;;;;4967382;28;20397;-71
2023/03/12 04:23:16;;;;;;;;;;;1.60;99.90;;;;;;4968920;28;19972;-71
2023/03/12 04:25:41;;;;;;;;;;;3.70;99.90;;;;;;4966597;28;20017;-71
2023/03/12 04:28:07;;;;;;;;;;;1.70;99.90;;;;;;4985029;28;19972;-71
2023/03/12 04:30:33;;;;;;;;;;;3.10;99.90;;;;;;4968218;28;19930;-71
2023/03/12 04:32:58;;;;;;;;;;;2.50;99.90;;;;;;4968505;28;19932;-71
2023/03/12 04:35:24;;;;;;;;;;;3.30;99.90;;;;;;4966912;28;20054;-71
2023/03/12 04:37:49;;;;;;;;;;;1.60;99.90;;;;;;4969823;28;20400;-71
2023/03/12 04:40:15;;;;;;;;;;;1.70;99.90;;;;;;4965355;28;20445;-71
2023/03/12 04:42:42;;;;;;;;;;;1.80;99.90;;;;;;4968849;28;21462;-71
2023/03/12 04:45:09;;;;;;;;;;;1.80;99.90;;;;;;4985013;28;19930;-71
2023/03/12 04:47:34;;;;;;;;;;;1.80;99.90;;;;;;4967218;28;19930;-71
2023/03/12 04:50:00;;;;;;;;;;;1.70;99.90;;;;;;4970424;28;19972;-71
2023/03/12 04:52:25;;;;;;;;;;;1.80;99.90;;;;;;4969515;28;19926;-71
2023/03/12 04:54:51;;;;;;;;;;;1.80;99.90;;;;;;4986221;28;19922;-72
2023/03/12 04:57:17;;;;;;;;;;;2.70;99.90;;;;;;4966412;28;19926;-71
2023/03/12 04:59:42;;;;;;;;;;;2.50;99.90;;;;;;4979295;28;19933;-71
2023/03/12 05:02:11;;;;;;;;;;;1.80;99.90;;;;;;4986386;28;20393;-71
2023/03/12 05:04:36;;;;;;;;;;;1.90;99.90;;;;;;4984174;28;19926;-71
2023/03/12 05:07:02;;;;;;;;;;;1.60;99.90;;;;;;4984847;28;19926;-71
2023/03/12 05:09:27;;;;;;;;;;;3.10;99.90;;;;;;4967285;28;20374;-71
2023/03/12 05:11:53;;;;;;;;;;;1.70;99.90;;;;;;4984385;28;19926;-71
2023/03/12 05:14:19;;;;;;;;;;;1.60;99.90;;;;;;4985498;28;19933;-71
2023/03/12 05:16:44;;;;;;;;;;;1.60;99.90;;;;;;4966641;28;19934;-71
2023/03/12 05:19:10;;;;;;;;;;;2.70;99.90;;;;;;4965550;28;19977;-71
2023/03/12 05:21:36;;;;;;;;;;;1.60;99.90;;;;;;4984821;28;19926;-71
2023/03/12 05:24:01;;;;;;;;;;;1.60;99.90;;;;;;4966887;28;19926;-71
2023/03/12 05:26:30;;;;;;;;;;;1.40;99.90;;;;;;4984882;28;19932;-71
2023/03/12 05:28:59;;;;;;;;;;;3.00;99.90;;;;;;4983779;28;19930;-71
2023/03/12 05:31:24;;;;;;;;;;;1.50;99.90;;;;;;4967047;28;19933;-71
2023/03/12 05:33:50;;;;;;;;;;;1.60;99.90;;;;;;4967404;28;19926;-71
2023/03/12 05:36:16;;;;;;;;;;;3.30;99.90;;;;;;4982575;28;19966;-71
2023/03/12 05:38:41;;;;;;;;;;;1.60;99.90;;;;;;4964813;28;19930;-71
2023/03/12 05:41:08;;;;;;;;;;;3.30;99.90;;;;;;4978803;28;19926;-71
2023/03/12 05:43:34;;;;;;;;;;;1.50;99.90;;;;;;4983962;28;20367;-71
2023/03/12 05:46:00;;;;;;;;;;;1.50;99.90;;;;;;4967795;28;19926;-71
2023/03/12 05:48:26;;;;;;;;;;;1.50;99.90;;;;;;4965932;28;19948;-71
2023/03/12 05:50:52;;;;;;;;;;;1.50;99.90;;;;;;4982673;28;20366;-71
2023/03/12 05:53:17;;;;;;;;;;;2.60;99.90;;;;;;4984827;28;19922;-71
2023/03/12 05:55:43;;;;;;;;;;;1.60;99.90;;;;;;4964857;28;20009;-71
2023/03/12 05:58:08;;;;;;;;;;;3.60;99.90;;;;;;4985263;28;19929;-71
2023/03/12 06:00:36;;;;;;;;;;;1.70;99.90;;;;;;4981964;28;19949;-71
2023/03/12 06:03:05;;;;;;;;;;;1.70;99.90;;;;;;4981800;28;19926;-71
2023/03/12 06:05:31;;;;;;;;;;;1.70;99.90;;;;;;4968048;28;19948;-71
2023/03/12 06:07:57;;;;;;;;;;;1.70;99.90;;;;;;4965398;28;19932;-71
2023/03/12 06:10:22;;;;;;;;;;;1.70;99.90;;;;;;4967378;28;19926;-71
2023/03/12 06:12:48;;;;;;;;;;;1.70;99.90;;;;;;4983400;28;20008;-71
2023/03/12 06:15:13;;;;;;;;;;;1.70;99.90;;;;;;4967405;28;20396;-71
2023/03/12 06:17:39;;;;;;;;;;;1.70;99.90;;;;;;4963824;28;19925;-71
2023/03/12 06:20:05;;;;;;;;;;;1.70;99.90;;;;;;4964362;28;19929;-71
2023/03/12 06:22:30;;;;;;;;;;;1.70;99.90;;;;;;4989271;28;19953;-71
2023/03/12 06:24:56;;;;;;;;;;;1.70;99.90;;;;;;4963857;28;20386;-71
2023/03/12 06:27:21;;;;;;;;;;;1.70;99.90;;;;;;4966479;28;20302;-71
2023/03/12 06:29:47;;;;;;;;;;;2.80;99.90;;;;;;4965686;28;20024;-71
2023/03/12 06:32:13;;;;;;;;;;;3.30;99.90;;;;;;4981132;28;19926;-72
2023/03/12 06:34:38;;;;;;;;;;;1.70;99.90;;;;;;4982257;28;19926;-71
2023/03/12 06:37:04;;;;;;;;;;;1.60;99.90;;;;;;4967512;28;19926;-71
2023/03/12 06:39:29;;;;;;;;;;;1.70;99.90;;;;;;4963239;28;19926;-71
2023/03/12 06:41:55;;;;;;;;;;;1.70;99.90;;;;;;4967268;28;19929;-71
2023/03/12 06:44:21;;;;;;;;;;;2.50;99.90;;;;;;4982253;28;19940;-71
2023/03/12 06:46:46;;;;;;;;;;;1.60;99.90;;;;;;4982950;28;19929;-71
2023/03/12 06:49:12;;;;;;;;;;;1.60;99.90;;;;;;4982938;28;19926;-71
2023/03/12 06:51:39;;;;;;;;;;;1.70;99.90;;;;;;4965117;28;20281;-71
2023/03/12 06:54:05;;;;;;;;;;;3.30;99.90;;;;;;4983919;28;19926;-71
2023/03/12 06:56:30;;;;;;;;;;;3.20;99.90;;;;;;4964426;28;19969;-71
2023/03/12 06:58:56;;;;;;;;;;;1.70;99.90;;;;;;4984982;28;19926;-70
2023/03/12 07:01:21;;;;;;;;;;;1.60;99.90;;;;;;4965716;28;19932;-71
2023/03/12 07:03:47;;;;;;;;;;;1.60;99.90;;;;;;4979317;28;19946;-72
2023/03/12 07:06:17;;;;;;;;;;;1.90;99.90;;;;;;4977310;28;19930;-72
2023/03/12 07:08:43;;;;;;;;;;;1.50;99.90;;;;;;4981470;28;19957;-72
2023/03/12 07:11:09;;;;;;;;;;;1.40;99.90;;;;;;4965855;28;19972;-72
2023/03/12 07:13:34;;;;;;;;;;;3.30;99.90;;;;;;4982484;28;19928;-72
2023/03/12 07:16:00;;;;;;;;;;;1.40;99.90;;;;;;4978629;28;19973;-71
2023/03/12 07:18:25;;;;;;;;;;;1.50;99.90;;;;;;4984562;28;19932;-72
2023/03/12 07:20:51;;;;;;;;;;;1.40;99.90;;;;;;4980509;28;20270;-71
2023/03/12 07:23:17;;;;;;;;;;;3.00;99.90;;;;;;4983219;28;19926;-72
2023/03/12 07:25:46;;;;;;;;;;;2.60;99.90;;;;;;4960463;28;19926;-71
2023/03/12 07:28:12;;;;;;;;;;;3.10;99.90;;;;;;4995477;28;20268;-71
2023/03/12 07:30:38;;;;;;;;;;;1.30;99.90;;;;;;4983561;28;20525;-72
2023/03/12 07:33:13;;;;;;;;;;;1.40;99.90;;;;;;4980106;28;19974;-70
2023/03/12 07:35:38;;;;;;;;;;;1.30;99.90;;;;;;4980533;28;19926;-71
2023/03/12 07:38:04;;;;;;;;;;;1.30;99.90;;;;;;4965014;28;20501;-71
2023/03/12 07:40:30;;;;;;;;;;;3.50;99.90;;;;;;4965582;28;20329;-71
2023/03/12 07:42:56;;;;;;;;;;;1.30;99.90;;;;;;4980772;28;20025;-71
2023/03/12 07:45:22;;;;;;;;;;;1.30;99.90;;;;;;4983678;28;19936;-71
2023/03/12 07:47:47;;;;;;;;;;;1.30;99.90;;;;;;4980756;28;19930;-71
2023/03/12 07:50:13;;;;;;;;;;;1.30;99.90;;;;;;4966099;28;20337;-71
2023/03/12 07:52:39;;;;;;;;;;;1.20;99.90;;;;;;4963837;28;20008;-71
2023/03/12 07:55:05;;;;;;;;;;;3.60;99.90;;;;;;4965587;28;19926;-71
2023/03/12 07:57:31;;;;;;;;;;;1.30;99.90;;;;;;4981414;28;19930;-71
2023/03/12 07:59:56;;;;;;;;;;;1.40;99.90;;;;;;4964730;28;19926;-71
2023/03/12 08:02:22;;;;;;;;;;;1.50;99.90;;;;;;4983446;28;19980;-72
2023/03/12 08:04:47;;;;;;;;;;;1.50;99.90;;;;;;4963052;28;19926;-72
2023/03/12 08:07:13;;;;;;;;;;;1.50;99.90;;;;;;4964342;28;19926;-71
2023/03/12 08:09:42;;;;;;;;;;;1.40;99.90;;;;;;4982493;28;19976;-71
2023/03/12 08:12:08;;;;;;;;;;;2.90;99.90;;;;;;4963845;28;19933;-71
2023/03/12 08:14:34;;;;;;;;;;;1.40;99.90;;;;;;4983526;28;19926;-72
2023/03/12 08:16:59;;;;;;;;;;;1.40;99.90;;;;;;4983380;28;20258;-72
2023/03/12 08:19:25;;;;;;;;;;;1.40;99.90;;;;;;4995726;28;19949;-72
2023/03/12 08:21:52;;;;;;;;;;;1.40;99.90;;;;;;4967227;28;20424;-72
2023/03/12 08:24:18;;;;;;;;;;;2.90;99.90;;;;;;4966060;28;19934;-72
2023/03/12 08:26:44;;;;;;;;;;;1.50;99.90;;;;;;4987373;28;19921;-72
2023/03/12 08:29:09;;;;;;;;;;;1.70;99.90;;;;;;4967376;28;19936;-72
2023/03/12 08:31:35;;;;;;;;;;;1.60;99.90;;;;;;4985766;28;19941;-72
2023/03/12 08:34:01;;;;;;;;;;;1.50;99.90;;;;;;4966935;28;19930;-73
2023/03/12 08:36:26;;;;;;;;;;;2.30;99.90;;;;;;4984961;28;19926;-73
2023/03/12 08:38:52;;;;;;;;;;;2.70;99.90;;;;;;4967017;28;19921;-72
2023/03/12 08:41:18;;;;;;;;;;;1.70;99.90;;;;;;4966936;28;20337;-80
2023/03/12 08:43:43;;;;;;;;;;;1.80;99.90;;;;;;4984457;28;19926;-76
2023/03/12 08:46:09;;;;;;;;;;;1.80;99.90;;;;;;4983908;28;20255;-75
2023/03/12 08:48:35;;;;;;;;;;;1.90;99.90;;;;;;4982945;28;20388;-74
2023/03/12 08:51:03;;;;;;;;;;;1.80;99.90;;;;;;4968885;28;19940;-72
2023/03/12 08:53:29;;;;;;;;;;;2.00;99.90;;;;;;4966026;28;20015;-73
2023/03/12 08:55:55;;;;;;;;;;;2.00;99.90;;;;;;4968449;28;19963;-76
2023/03/12 08:58:22;;;;;;;;;;;1.90;99.90;;;;;;4986696;28;19926;-77
2023/03/12 09:00:47;;;;;;;;;;;1.80;99.90;;;;;;4981403;23;19926;-75
2023/03/12 09:03:13;;;;;;;;;;;1.90;99.90;;;;;;4986371;28;19960;-74
2023/03/12 09:05:39;;;;;;;;;;;4.60;99.90;;;;;;4982649;28;19930;-74
2023/03/12 09:08:05;;;;;;;;;;;4.00;99.90;;;;;;4985077;28;19979;-74
2023/03/12 09:10:31;;;;;;;;;;;2.10;99.90;;;;;;4983223;28;20332;-74
2023/03/12 09:12:57;;;;;;;;;;;2.00;99.90;;;;;;4985817;28;19933;-73
2023/03/12 09:15:25;;;;;;;;;;;2.10;99.90;;;;;;4982870;28;19926;-73
2023/03/12 09:17:52;;;;;;;;;;;2.10;99.90;;;;;;4984213;28;20006;-77
2023/03/12 09:20:18;;;;;;;;;;;3.70;99.90;;;;;;4983091;28;20017;-72
2023/03/12 09:22:44;;;;;;;;;;;2.20;99.90;;;;;;4984715;28;20043;-71
2023/03/12 09:25:10;;;;;;;;;;;2.20;99.90;;;;;;4984347;28;19940;-72
2023/03/12 09:27:36;;;;;;;;;;;2.20;99.90;;;;;;4977171;28;19949;-71
2023/03/12 09:30:02;;;;;;;;;;;3.70;99.90;;;;;;4972298;28;20163;-73
2023/03/12 09:32:27;;;;;;;;;;;2.20;99.90;;;;;;4973936;28;19926;-74
2023/03/12 09:34:53;;;;;;;;;;;2.30;99.90;;;;;;4982657;28;19932;-74
2023/03/12 09:37:21;;;;;;;;;;;2.40;99.90;;;;;;4979004;28;19927;-74
2023/03/12 09:39:48;;;;;;;;;;;2.40;99.90;;;;;;4983925;28;19926;-75
2023/03/12 09:42:20;;;;;;;;;;;2.40;99.90;;;;;;4981773;28;19933;-73
2023/03/12 09:44:46;;;;;;;;;;;2.40;99.90;;;;;;4980147;28;19926;-72
2023/03/12 09:47:17;;;;;;;;;;;4.30;99.90;;;;;;4982913;28;19925;-77
2023/03/12 09:49:45;;;;;;;;;;;2.60;99.90;;;;;;4983410;28;20322;-74
2023/03/12 09:52:20;;;;;;;;;;;4.30;99.90;;;;;;4983206;28;20028;-72
2023/03/12 09:54:51;;;;;;;;;;;2.70;99.90;;;;;;4983474;28;19926;-72
2023/03/12 09:57:22;;;;;;;;;;;2.60;99.90;;;;;;4982292;28;19934;-71
2023/03/12 09:59:48;;;;;;;;;;;2.70;99.90;;;;;;4983742;28;19930;-74
2023/03/12 10:02:34;;;;;;;;;;;2.80;99.90;;;;;;4982243;28;19926;-72
2023/03/12 10:05:09;;;;;;;;;;;3.70;99.90;;;;;;4979001;28;19932;-80
2023/03/12 10:07:38;;;;;;;;;;;2.90;99.90;;;;;;4980792;28;19926;-72
2023/03/12 10:10:04;;;;;;;;;;;3.70;99.90;;;;;;4983916;28;20369;-73
2023/03/12 10:12:32;;;;;;;;;;;2.90;99.90;;;;;;4981489;28;19932;-80
2023/03/12 10:15:00;;;;;;;;;;;2.90;99.90;;;;;;4985286;28;19961;-74
2023/03/12 10:17:36;;;;;;;;;;;3.00;99.90;;;;;;4979884;28;19926;-76
2023/03/12 10:20:15;;;;;;;;;;;5.00;99.90;;;;;;4983742;28;20452;-74
2023/03/12 10:22:47;;;;;;;;;;;3.10;99.90;;;;;;4984374;28;19946;-74
2023/03/12 10:25:21;;;;;;;;;;;3.20;99.90;;;;;;4981933;28;19926;-75
2023/03/12 10:27:47;;;;;;;;;;;3.10;99.90;;;;;;4981120;28;19926;-73
2023/03/12 10:30:16;;;;;;;;;;;3.20;99.90;;;;;;4983816;28;19930;-75
2023/03/12 10:32:50;;;;;;;;;;;3.30;99.90;;;;;;4982242;28;19952;-76
2023/03/12 10:35:17;;;;;;;;;;;3.30;99.90;;;;;;4984880;28;19929;-76
2023/03/12 10:37:49;;;;;;;;;;;3.40;99.90;;;;;;4972730;28;20031;-74
2023/03/12 10:40:19;;;;;;;;;;;3.60;99.90;;;;;;4972212;28;19930;-74
2023/03/12 10:42:44;;;;;;;;;;;5.70;99.90;;;;;;4971315;28;19930;-74
2023/03/12 10:45:19;;;;;;;;;;;6.00;99.90;;;;;;4973545;28;19933;-73
2023/03/12 10:47:49;;;;;;;;;;;5.30;99.90;;;;;;4980411;28;19965;-73
2023/03/12 10:50:25;;;;;;;;;;;3.90;99.90;;;;;;4971344;28;20285;-73
2023/03/12 10:52:53;;;;;;;;;;;4.00;99.90;;;;;;4969043;28;19933;-73
2023/03/12 10:55:28;;;;;;;;;;;6.00;99.90;;;;;;4972452;28;20441;-73
2023/03/12 10:57:54;;;;;;;;;;;4.40;99.90;;;;;;4976354;28;19929;-74
2023/03/12 11:00:27;;;;;;;;;;;6.00;99.90;;;;;;4970052;28;19926;-74
2023/03/12 11:03:04;;;;;;;;;;;4.80;99.90;;;;;;4971709;28;19961;-73
2023/03/12 11:05:47;;;;;;;;;;;4.90;99.90;;;;;;4983659;28;20417;-73
2023/03/12 11:08:26;;;;;;;;;;;4.90;99.90;;;;;;4979667;28;20020;-73
2023/03/12 11:10:54;;;;;;;;;;;5.00;99.90;;;;;;5008628;28;19977;-73
2023/03/12 11:13:24;;;;;;;;;;;6.00;99.90;;;;;;4984672;28;19926;-73
2023/03/12 11:15:51;;;;;;;;;;;5.20;99.90;;;;;;4980510;28;20013;-73
2023/03/12 11:18:27;;;;;;;;;;;5.50;99.90;;;;;;4979904;28;20005;-73
2023/03/12 11:21:13;;;;;;;;;;;5.30;99.90;;;;;;4976953;28;19930;-72
2023/03/12 11:23:41;;;;;;;;;;;5.50;99.90;;;;;;4981190;28;20329;-73
2023/03/12 11:26:30;;;;;;;;;;;6.70;99.90;;;;;;4981355;28;20055;-72
2023/03/12 11:29:11;;;;;;;;;;;5.50;99.90;;;;;;4968322;28;20020;-72
2023/03/12 11:31:40;;;;;;;;;;;5.50;99.90;;;;;;4972428;28;20329;-76
2023/03/12 11:34:13;;;;;;;;;;;6.10;99.90;;;;;;4974148;28;20362;-77
2023/03/12 11:36:55;;;;;;;;;;;7.00;99.90;;;;;;4974550;28;19929;-75
2023/03/12 11:39:26;;;;;;;;;;;5.80;99.90;;;;;;4977379;28;19938;-79
2023/03/12 11:42:02;;;;;;;;;;;5.90;99.90;;;;;;4979734;28;19930;-77
2023/03/12 11:44:33;;;;;;;;;;;6.00;99.90;;;;;;4980667;28;19934;-77
2023/03/12 11:47:24;;;;;;;;;;;6.20;99.90;;;;;;4978499;28;19981;-75
2023/03/12 11:49:56;;;;;;;;;;;6.30;99.90;;;;;;4979307;28;19994;-76
2023/03/12 11:52:37;;;;;;;;;;;6.70;99.90;;;;;;4981198;28;20538;-74
2023/03/12 11:55:06;;;;;;;;;;;6.70;99.90;;;;;;4984222;28;20648;-77
2023/03/12 11:57:31;;;;;;;;;;;7.00;99.90;;;;;;4982072;28;20362;-79
2023/03/12 11:59:57;;;;;;;;;;;8.90;99.90;;;;;;4983869;28;20098;-72
2023/03/12 12:02:22;;;;;;;;;;;7.30;99.90;;;;;;4972649;28;19930;-73
2023/03/12 12:04:58;;;;;;;;;;;7.40;99.90;;;;;;4972973;28;20332;-73
2023/03/12 12:07:42;;;;;;;;;;;7.50;99.90;;;;;;4986946;28;19949;-73
2023/03/12 12:10:21;;;;;;;;;;;7.60;99.90;;;;;;4987217;28;20408;-73
2023/03/12 12:12:47;;;;;;;;;;;7.80;99.90;;;;;;4986628;28;19922;-74
2023/03/12 12:15:13;;;;;;;;;;;8.00;99.90;;;;;;4984023;28;20036;-72
2023/03/12 12:18:07;;;;;;;;;;;8.00;99.90;;;;;;4985549;28;20048;-73
2023/03/12 12:20:38;;;;;;;;;;;8.20;99.90;;;;;;4966239;28;19933;-73
2023/03/12 12:23:22;;;;;;;;;;;8.70;99.90;;;;;;4978089;28;19922;-74
2023/03/12 12:26:00;;;;;;;;;;;8.70;99.90;;;;;;4982231;28;19934;-76
2023/03/12 12:28:35;;;;;;;;;;;9.00;99.90;;;;;;4984755;28;19930;-74
2023/03/12 12:31:08;;;;;;;;;;;9.30;99.90;;;;;;4979688;28;19926;-75
2023/03/12 12:33:39;;;;;;;;;;;9.30;99.90;;;;;;4979270;28;19922;-74
2023/03/12 12:36:07;;;;;;;;;;;9.40;99.90;;;;;;4986044;28;19926;-75
2023/03/12 12:38:41;;;;;;;;;;;9.50;99.90;;;;;;4983056;28;19926;-73
2023/03/12 12:41:12;;;;;;;;;;;9.80;99.90;;;;;;4986939;28;19933;-77
2023/03/12 12:43:39;;;;;;;;;;;9.90;99.90;;;;;;4983979;28;19922;-76
2023/03/12 12:46:09;;;;;;;;;;;10.20;99.90;;;;;;4978882;28;19926;-76
2023/03/12 12:48:40;;;;;;;;;;;10.60;99.90;;;;;;4979381;28;19969;-74
2023/03/12 12:51:07;;;;;;;;;;;10.90;99.90;;;;;;4976465;28;19926;-74
2023/03/12 12:53:32;;;;;;;;;;;11.40;99.90;;;;;;4984691;28;20355;-74
2023/03/12 12:56:01;;;;;;;;;;;11.70;99.90;;;;;;4983921;28;19926;-72
2023/03/12 12:58:42;;;;;;;;;;;11.90;99.90;;;;;;4977228;28;20424;-74
2023/03/12 13:01:08;;;;;;;;;;;12.30;99.90;;;;;;4979720;28;19926;-74
2023/03/12 13:03:37;;;;;;;;;;;12.30;99.90;;;;;;4983384;28;19926;-75
2023/03/12 13:06:04;;;;;;;;;;;12.00;99.90;;;;;;4976086;28;19926;-74
2023/03/12 13:08:34;;;;;;;;;;;11.30;99.90;;;;;;4981616;28;19949;-76
2023/03/12 13:11:22;;;;;;;;;;;10.90;99.90;;;;;;4984553;28;19925;-76
2023/03/12 13:13:49;;;;;;;;;;;10.50;99.90;;;;;;4981793;28;19929;-76
2023/03/12 13:16:35;;;;;;;;;;;10.30;99.90;;;;;;4984072;28;19980;-75
2023/03/12 13:19:12;;;;;;;;;;;10.20;99.90;;;;;;4975192;28;19933;-75
2023/03/12 13:21:50;;;;;;;;;;;10.00;99.90;;;;;;4980195;28;19930;-75
2023/03/12 13:24:24;;;;;;;;;;;9.90;99.90;;;;;;4982071;28;20028;-75
2023/03/12 13:26:53;;;;;;;;;;;9.80;99.90;;;;;;4977768;28;19949;-75
2023/03/12 13:29:28;;;;;;;;;;;9.80;99.90;;;;;;4984607;28;20358;-75
2023/03/12 13:31:53;;;;;;;;;;;9.80;99.90;;;;;;4980008;28;19927;-75
2023/03/12 13:34:19;;;;;;;;;;;9.80;99.90;;;;;;4984491;28;19925;-75
2023/03/12 13:36:45;;;;;;;;;;;9.70;99.90;;;;;;4980737;28;20305;-75
2023/03/12 13:39:14;;;;;;;;;;;9.80;99.90;;;;;;4985996;28;19927;-75
2023/03/12 13:41:39;;;;;;;;;;;10.00;99.90;;;;;;4980951;28;20325;-75
2023/03/12 13:44:37;;;;;;;;;;;10.40;99.90;;;;;;4979054;28;20009;-76
2023/03/12 13:47:09;;;;;;;;;;;10.40;99.90;;;;;;4919399;28;19930;-76
2023/03/12 13:49:39;;;;;;;;;;;10.50;99.90;;;;;;4984260;28;19930;-76
2023/03/12 13:52:16;;;;;;;;;;;10.60;99.90;;;;;;4981125;28;19937;-76
2023/03/12 13:54:44;;;;;;;;;;;10.80;99.90;;;;;;4982212;28;20135;-76
2023/03/12 13:57:31;;;;;;;;;;;10.90;99.90;;;;;;4983441;28;19934;-75
2023/03/12 13:59:57;;;;;;;;;;;11.00;99.90;;;;;;4975414;28;19956;-75
2023/03/12 14:02:28;;;;;;;;;;;11.00;99.90;;;;;;4979483;28;19984;-76
2023/03/12 14:05:01;;;;;;;;;;;10.90;99.90;;;;;;4984301;28;19952;-76
2023/03/12 14:07:35;;;;;;;;;;;11.20;99.90;;;;;;4981143;28;20025;-79
2023/03/12 14:10:10;;;;;;;;;;;10.90;99.90;;;;;;4982672;28;19926;-76
2023/03/12 14:12:36;;;;;;;;;;;10.80;99.90;;;;;;4981065;28;20388;-76
2023/03/12 14:15:02;;;;;;;;;;;11.00;99.90;;;;;;4983767;28;19972;-78
2023/03/12 14:17:32;;;;;;;;;;;10.70;99.90;;;;;;4983378;28;20451;-75
2023/03/12 14:20:17;;;;;;;;;;;10.40;99.90;;;;;;4982719;28;20303;-74
2023/03/12 14:22:45;;;;;;;;;;;10.30;99.90;;;;;;5009110;28;20084;-76
2023/03/12 14:25:14;;;;;;;;;;;10.30;99.90;;;;;;4978118;28;20016;-75
2023/03/12 14:27:39;;;;;;;;;;;10.30;99.90;;;;;;4981640;28;19930;-75
2023/03/12 14:30:14;;;;;;;;;;;10.60;99.90;;;;;;4983515;28;20285;-75
2023/03/12 14:32:41;;;;;;;;;;;10.40;99.90;;;;;;4978280;28;19933;-75
2023/03/12 14:35:19;;;;;;;;;;;10.40;99.90;;;;;;4984878;28;19933;-74